sensor_id;sensor_type;location;lat;lon;timestamp;pressure;altitude;pressure_sealevel;temperature;humidity
39449;BME280;25151;45.566;9.382;2024-02-23T00:01:44;98232.22;;;20.55;57.47
39449;BME280;25151;45.566;9.382;2024-02-23T00:04:10;98215.91;;;20.54;57.19
39449;BME280;25151;45.566;9.382;2024-02-23T00:06:36;98209.28;;;20.51;57.45
39449;BME280;25151;45.566;9.382;2024-02-23T00:09:03;98198.06;;;20.51;57.31
39449;BME280;25151;45.566;9.382;2024-02-23T00:11:30;98202.41;;;20.52;57.43
39449;BME280;25151;45.566;9.382;2024-02-23T00:13:58;98207.69;;;20.50;57.49
39449;BME280;25151;45.566;9.382;2024-02-23T00:16:25;98212.25;;;20.48;57.67
39449;BME280;25151;45.566;9.382;2024-02-23T00:18:55;98205.41;;;20.49;57.63
39449;BME280;25151;45.566;9.382;2024-02-23T00:21:21;98198.25;;;20.48;57.60
39449;BME280;25151;45.566;9.382;2024-02-23T00:23:48;98189.06;;;20.47;57.33
39449;BME280;25151;45.566;9.382;2024-02-23T00:26:14;98185.47;;;20.47;57.72
39449;BME280;25151;45.566;9.382;2024-02-23T00:28:41;98195.63;;;20.44;57.46
39449;BME280;25151;45.566;9.382;2024-02-23T00:31:08;98190.03;;;20.44;57.56
39449;BME280;25151;45.566;9.382;2024-02-23T00:33:34;98184.16;;;20.42;57.33
39449;BME280;25151;45.566;9.382;2024-02-23T00:36:03;98184.44;;;20.44;57.35
39449;BME280;25151;45.566;9.382;2024-02-23T00:38:29;98170.16;;;20.42;57.25
39449;BME280;25151;45.566;9.382;2024-02-23T00:40:56;98160.97;;;20.42;57.60
39449;BME280;25151;45.566;9.382;2024-02-23T00:43:23;98153.09;;;20.40;57.25
39449;BME280;25151;45.566;9.382;2024-02-23T00:45:49;98153.09;;;20.40;57.65
39449;BME280;25151;45.566;9.382;2024-02-23T00:48:16;98139.09;;;20.40;57.42
39449;BME280;25151;45.566;9.382;2024-02-23T00:50:42;98123.53;;;20.39;57.69
39449;BME280;25151;45.566;9.382;2024-02-23T00:53:09;98128.84;;;20.37;57.52
39449;BME280;25151;45.566;9.382;2024-02-23T00:55:36;98131.66;;;20.37;57.59
39449;BME280;25151;45.566;9.382;2024-02-23T00:58:02;98114.56;;;20.35;57.55
39449;BME280;25151;45.566;9.382;2024-02-23T01:00:29;98123.75;;;20.35;57.66
39449;BME280;25151;45.566;9.382;2024-02-23T01:02:55;98122.97;;;20.35;57.63
39449;BME280;25151;45.566;9.382;2024-02-23T01:05:25;98099.53;;;20.32;57.61
39449;BME280;25151;45.566;9.382;2024-02-23T01:07:51;98120.66;;;20.33;57.47
39449;BME280;25151;45.566;9.382;2024-02-23T01:10:18;98103.59;;;20.31;57.68
39449;BME280;25151;45.566;9.382;2024-02-23T01:12:45;98103.09;;;20.33;57.45
39449;BME280;25151;45.566;9.382;2024-02-23T01:15:12;98081.69;;;20.30;57.54
39449;BME280;25151;45.566;9.382;2024-02-23T01:17:38;98095.97;;;20.32;57.51
39449;BME280;25151;45.566;9.382;2024-02-23T01:20:05;98085.25;;;20.30;57.69
39449;BME280;25151;45.566;9.382;2024-02-23T01:22:32;98078.88;;;20.30;57.76
39449;BME280;25151;45.566;9.382;2024-02-23T01:24:59;98062.09;;;20.30;57.59
39449;BME280;25151;45.566;9.382;2024-02-23T01:27:25;98068.19;;;20.28;57.75
39449;BME280;25151;45.566;9.382;2024-02-23T01:29:52;98061.53;;;20.26;57.84
39449;BME280;25151;45.566;9.382;2024-02-23T01:32:19;98057.97;;;20.25;57.67
39449;BME280;25151;45.566;9.382;2024-02-23T01:34:45;98051.09;;;20.26;57.59
39449;BME280;25151;45.566;9.382;2024-02-23T01:37:12;98031.72;;;20.23;57.44
39449;BME280;25151;45.566;9.382;2024-02-23T01:39:38;98041.66;;;20.24;57.38
39449;BME280;25151;45.566;9.382;2024-02-23T01:42:05;98041.66;;;20.24;57.63
39449;BME280;25151;45.566;9.382;2024-02-23T01:44:32;98031.72;;;20.23;57.74
39449;BME280;25151;45.566;9.382;2024-02-23T01:46:58;98023.31;;;20.23;57.44
39449;BME280;25151;45.566;9.382;2024-02-23T01:49:25;98018.22;;;20.21;57.49
39449;BME280;25151;45.566;9.382;2024-02-23T01:51:57;98007.03;;;20.21;57.52
39449;BME280;25151;45.566;9.382;2024-02-23T01:54:24;98001.13;;;20.19;57.46
39449;BME280;25151;45.566;9.382;2024-02-23T01:56:51;97995.06;;;20.21;57.74
39449;BME280;25151;45.566;9.382;2024-02-23T01:59:18;97989.94;;;20.19;57.67
39449;BME280;25151;45.566;9.382;2024-02-23T02:01:45;97975.19;;;20.19;57.62
39449;BME280;25151;45.566;9.382;2024-02-23T02:04:12;97975.94;;;20.19;57.68
39449;BME280;25151;45.566;9.382;2024-02-23T02:06:38;97971.34;;;20.16;57.63
39449;BME280;25151;45.566;9.382;2024-02-23T02:09:05;97970.59;;;20.16;57.75
39449;BME280;25151;45.566;9.382;2024-02-23T02:11:31;97967.78;;;20.16;57.45
39449;BME280;25151;45.566;9.382;2024-02-23T02:13:58;97967.00;;;20.15;57.77
39449;BME280;25151;45.566;9.382;2024-02-23T02:16:25;97970.59;;;20.16;57.67
39449;BME280;25151;45.566;9.382;2024-02-23T02:18:52;97956.31;;;20.13;57.48
39449;BME280;25151;45.566;9.382;2024-02-23T02:21:18;97957.56;;;20.12;57.56
39449;BME280;25151;45.566;9.382;2024-02-23T02:23:49;97948.41;;;20.12;57.67
39449;BME280;25151;45.566;9.382;2024-02-23T02:26:16;97950.91;;;20.10;57.49
39449;BME280;25151;45.566;9.382;2024-02-23T02:28:42;97942.81;;;20.12;57.76
39449;BME280;25151;45.566;9.382;2024-02-23T02:31:09;97951.97;;;20.12;57.49
39449;BME280;25151;45.566;9.382;2024-02-23T02:33:35;97941.00;;;20.09;57.57
39449;BME280;25151;45.566;9.382;2024-02-23T02:36:02;97943.03;;;20.08;57.76
39449;BME280;25151;45.566;9.382;2024-02-23T02:38:28;97944.56;;;20.09;57.50
39449;BME280;25151;45.566;9.382;2024-02-23T02:40:55;97943.78;;;20.09;57.70
39449;BME280;25151;45.566;9.382;2024-02-23T02:43:23;97932.59;;;20.09;57.64
39449;BME280;25151;45.566;9.382;2024-02-23T02:45:49;97932.59;;;20.09;57.73
39449;BME280;25151;45.566;9.382;2024-02-23T02:48:16;97937.44;;;20.08;57.58
39449;BME280;25151;45.566;9.382;2024-02-23T02:50:42;97929.50;;;20.07;57.75
39449;BME280;25151;45.566;9.382;2024-02-23T02:53:10;97932.31;;;20.07;57.44
39449;BME280;25151;45.566;9.382;2024-02-23T02:55:39;97926.72;;;20.07;57.75
39449;BME280;25151;45.566;9.382;2024-02-23T02:58:05;97919.59;;;20.06;57.76
39449;BME280;25151;45.566;9.382;2024-02-23T03:00:32;97918.53;;;20.03;57.53
39449;BME280;25151;45.566;9.382;2024-02-23T03:02:58;97917.00;;;20.02;57.54
39449;BME280;25151;45.566;9.382;2024-02-23T03:05:25;97919.31;;;20.04;57.52
39449;BME280;25151;45.566;9.382;2024-02-23T03:07:51;97903.00;;;20.02;57.65
39449;BME280;25151;45.566;9.382;2024-02-23T03:10:17;97897.72;;;20.04;57.49
39449;BME280;25151;45.566;9.382;2024-02-23T03:12:44;97897.16;;;20.00;57.46
39449;BME280;25151;45.566;9.382;2024-02-23T03:15:11;97891.56;;;20.00;57.52
39449;BME280;25151;45.566;9.382;2024-02-23T03:17:38;97899.19;;;20.00;57.70
39449;BME280;25151;45.566;9.382;2024-02-23T03:20:05;97887.19;;;19.99;57.81
39449;BME280;25151;45.566;9.382;2024-02-23T03:22:34;97888.75;;;20.00;57.46
39449;BME280;25151;45.566;9.382;2024-02-23T03:25:01;97898.41;;;19.99;57.79
39449;BME280;25151;45.566;9.382;2024-02-23T03:27:34;97901.19;;;19.99;57.93
39449;BME280;25151;45.566;9.382;2024-02-23T03:30:02;97896.38;;;20.00;57.48
39449;BME280;25151;45.566;9.382;2024-02-23T03:32:28;97896.09;;;19.98;57.63
39449;BME280;25151;45.566;9.382;2024-02-23T03:34:57;97881.34;;;19.97;57.38
39449;BME280;25151;45.566;9.382;2024-02-23T03:37:23;97885.41;;;19.96;57.57
39449;BME280;25151;45.566;9.382;2024-02-23T03:39:50;97886.94;;;19.97;57.58
39449;BME280;25151;45.566;9.382;2024-02-23T03:42:16;97891.00;;;19.96;57.49
39449;BME280;25151;45.566;9.382;2024-02-23T03:44:43;97881.06;;;19.95;57.58
39449;BME280;25151;45.566;9.382;2024-02-23T03:47:10;97888.69;;;19.95;57.77
39449;BME280;25151;45.566;9.382;2024-02-23T03:49:37;97881.56;;;19.94;57.52
39449;BME280;25151;45.566;9.382;2024-02-23T03:52:04;97877.50;;;19.95;57.85
39449;BME280;25151;45.566;9.382;2024-02-23T03:54:31;97874.69;;;19.95;57.49
39449;BME280;25151;45.566;9.382;2024-02-23T03:56:57;97876.72;;;19.94;57.60
39449;BME280;25151;45.566;9.382;2024-02-23T03:59:24;97868.84;;;19.93;57.62
39449;BME280;25151;45.566;9.382;2024-02-23T04:01:51;97861.69;;;19.92;57.85
39449;BME280;25151;45.566;9.382;2024-02-23T04:04:17;97876.47;;;19.92;57.89
39449;BME280;25151;45.566;9.382;2024-02-23T04:06:44;97892.97;;;19.90;57.87
39449;BME280;25151;45.566;9.382;2024-02-23T04:09:10;97900.84;;;19.92;57.78
39449;BME280;25151;45.566;9.382;2024-02-23T04:11:37;97894.50;;;19.91;57.81
39449;BME280;25151;45.566;9.382;2024-02-23T04:14:03;97894.50;;;19.91;57.63
39449;BME280;25151;45.566;9.382;2024-02-23T04:16:31;97882.75;;;19.87;57.71
39449;BME280;25151;45.566;9.382;2024-02-23T04:18:57;97874.66;;;19.89;57.71
39449;BME280;25151;45.566;9.382;2024-02-23T04:21:25;97884.31;;;19.88;57.74
39449;BME280;25151;45.566;9.382;2024-02-23T04:23:51;97891.44;;;19.89;57.73
39449;BME280;25151;45.566;9.382;2024-02-23T04:26:18;97891.91;;;19.87;57.94
39449;BME280;25151;45.566;9.382;2024-02-23T04:28:44;97892.69;;;19.88;57.89
39449;BME280;25151;45.566;9.382;2024-02-23T04:31:11;97889.91;;;19.88;57.72
39449;BME280;25151;45.566;9.382;2024-02-23T04:33:37;97892.91;;;19.84;57.78
39449;BME280;25151;45.566;9.382;2024-02-23T04:36:04;97875.63;;;19.86;57.95
39449;BME280;25151;45.566;9.382;2024-02-23T04:38:31;97877.34;;;19.83;58.08
39449;BME280;25151;45.566;9.382;2024-02-23T04:40:58;97887.78;;;19.83;57.96
39449;BME280;25151;45.566;9.382;2024-02-23T04:43:25;97880.94;;;19.84;58.07
39449;BME280;25151;45.566;9.382;2024-02-23T04:45:51;97887.31;;;19.84;57.67
39449;BME280;25151;45.566;9.382;2024-02-23T04:48:18;97901.28;;;19.84;57.68
39449;BME280;25151;45.566;9.382;2024-02-23T04:50:44;97893.38;;;19.83;57.95
39449;BME280;25151;45.566;9.382;2024-02-23T04:53:11;97887.53;;;19.81;57.83
39449;BME280;25151;45.566;9.382;2024-02-23T04:55:37;97879.91;;;19.81;57.68
39449;BME280;25151;45.566;9.382;2024-02-23T04:58:05;97873.53;;;19.81;57.70
39449;BME280;25151;45.566;9.382;2024-02-23T05:00:32;97872.00;;;19.80;57.94
39449;BME280;25151;45.566;9.382;2024-02-23T05:03:00;97882.41;;;19.79;57.64
39449;BME280;25151;45.566;9.382;2024-02-23T05:05:29;97877.59;;;19.80;57.88
39449;BME280;25151;45.566;9.382;2024-02-23T05:07:56;97874.81;;;19.80;57.85
39449;BME280;25151;45.566;9.382;2024-02-23T05:10:23;97879.59;;;19.79;57.89
39449;BME280;25151;45.566;9.382;2024-02-23T05:12:50;97880.41;;;19.80;57.94
39449;BME280;25151;45.566;9.382;2024-02-23T05:15:17;97876.03;;;19.79;57.84
39449;BME280;25151;45.566;9.382;2024-02-23T05:17:43;97881.63;;;19.79;57.89
39449;BME280;25151;45.566;9.382;2024-02-23T05:20:10;97864.59;;;19.77;57.73
39449;BME280;25151;45.566;9.382;2024-02-23T05:22:40;97864.84;;;19.79;57.75
39449;BME280;25151;45.566;9.382;2024-02-23T05:25:07;97868.91;;;19.78;58.04
39449;BME280;25151;45.566;9.382;2024-02-23T05:27:34;97850.59;;;19.77;57.79
39449;BME280;25151;45.566;9.382;2024-02-23T05:30:00;97844.72;;;19.75;57.86
39449;BME280;25151;45.566;9.382;2024-02-23T05:32:28;97850.59;;;19.77;57.92
39449;BME280;25151;45.566;9.382;2024-02-23T05:34:55;97849.03;;;19.76;58.02
39449;BME280;25151;45.566;9.382;2024-02-23T05:37:23;97849.56;;;19.74;57.88
39449;BME280;25151;45.566;9.382;2024-02-23T05:39:49;97847.03;;;19.76;57.74
39449;BME280;25151;45.566;9.382;2024-02-23T05:42:16;97849.03;;;19.76;58.04
39449;BME280;25151;45.566;9.382;2024-02-23T05:44:49;97850.31;;;19.75;58.04
39449;BME280;25151;45.566;9.382;2024-02-23T05:47:18;97850.06;;;19.73;57.82
39449;BME280;25151;45.566;9.382;2024-02-23T05:49:53;97846.50;;;19.72;57.95
39449;BME280;25151;45.566;9.382;2024-02-23T05:52:20;97850.81;;;19.73;57.75
39449;BME280;25151;45.566;9.382;2024-02-23T05:54:50;97850.06;;;19.73;57.92
39449;BME280;25151;45.566;9.382;2024-02-23T05:57:17;97843.91;;;19.69;57.76
39449;BME280;25151;45.566;9.382;2024-02-23T05:59:44;97851.28;;;19.72;57.82
39449;BME280;25151;45.566;9.382;2024-02-23T06:02:11;97841.38;;;19.71;57.89
39449;BME280;25151;45.566;9.382;2024-02-23T06:04:37;97845.69;;;19.72;58.00
39449;BME280;25151;45.566;9.382;2024-02-23T06:07:04;97818.53;;;19.72;57.97
39449;BME280;25151;45.566;9.382;2024-02-23T06:09:31;97817.47;;;19.70;57.71
39449;BME280;25151;45.566;9.382;2024-02-23T06:11:57;97816.22;;;19.71;57.97
39449;BME280;25151;45.566;9.382;2024-02-23T06:14:24;97813.41;;;19.71;57.97
39449;BME280;25151;45.566;9.382;2024-02-23T06:16:53;97809.59;;;19.68;57.88
39449;BME280;25151;45.566;9.382;2024-02-23T06:19:19;97811.88;;;19.70;57.85
39449;BME280;25151;45.566;9.382;2024-02-23T06:21:49;97818.25;;;19.70;58.00
39449;BME280;25151;45.566;9.382;2024-02-23T06:24:16;97829.41;;;19.70;57.98
39449;BME280;25151;45.566;9.382;2024-02-23T06:26:42;97832.72;;;19.69;57.88
39449;BME280;25151;45.566;9.382;2024-02-23T06:29:09;97809.81;;;19.64;58.08
39449;BME280;25151;45.566;9.382;2024-02-23T06:31:38;97815.19;;;19.68;58.03
39449;BME280;25151;45.566;9.382;2024-02-23T06:34:05;97811.31;;;19.65;58.05
39449;BME280;25151;45.566;9.382;2024-02-23T06:36:32;97811.59;;;19.68;58.07
39449;BME280;25151;45.566;9.382;2024-02-23T06:38:58;97809.03;;;19.64;58.09
39449;BME280;25151;45.566;9.382;2024-02-23T06:41:25;97812.09;;;19.66;58.00
39449;BME280;25151;45.566;9.382;2024-02-23T06:43:52;97817.41;;;19.64;58.00
39449;BME280;25151;45.566;9.382;2024-02-23T06:46:19;97828.09;;;19.65;58.17
39449;BME280;25151;45.566;9.382;2024-02-23T06:48:46;97825.31;;;19.65;57.82
39449;BME280;25151;45.566;9.382;2024-02-23T06:51:13;97830.59;;;19.63;57.94
39449;BME280;25151;45.566;9.382;2024-02-23T06:53:41;97835.72;;;19.65;58.12
39449;BME280;25151;45.566;9.382;2024-02-23T06:56:08;97848.94;;;19.64;58.06
39449;BME280;25151;45.566;9.382;2024-02-23T06:58:34;97851.72;;;19.64;57.79
39449;BME280;25151;45.566;9.382;2024-02-23T07:01:01;97855.78;;;19.63;57.93
39449;BME280;25151;45.566;9.382;2024-02-23T07:03:28;97854.25;;;19.62;58.19
39449;BME280;25151;45.566;9.382;2024-02-23T07:05:55;97859.84;;;19.62;58.02
39449;BME280;25151;45.566;9.382;2024-02-23T07:08:22;97864.16;;;19.63;57.89
39449;BME280;25151;45.566;9.382;2024-02-23T07:10:48;97862.63;;;19.62;58.14
39449;BME280;25151;45.566;9.382;2024-02-23T07:13:14;97853.47;;;19.62;57.85
39449;BME280;25151;45.566;9.382;2024-02-23T07:15:40;97855.50;;;19.61;58.01
39449;BME280;25151;45.566;9.382;2024-02-23T07:18:07;97858.31;;;19.61;57.83
39449;BME280;25151;45.566;9.382;2024-02-23T07:20:35;97858.31;;;19.61;58.14
39449;BME280;25151;45.566;9.382;2024-02-23T07:23:02;97853.94;;;19.60;57.84
39449;BME280;25151;45.566;9.382;2024-02-23T07:25:28;97856.75;;;19.60;58.14
39449;BME280;25151;45.566;9.382;2024-02-23T07:27:57;97856.44;;;19.58;58.16
39449;BME280;25151;45.566;9.382;2024-02-23T07:30:24;97867.16;;;19.60;58.02
39449;BME280;25151;45.566;9.382;2024-02-23T07:32:50;97874.00;;;19.59;58.13
39449;BME280;25151;45.566;9.382;2024-02-23T07:35:16;97882.88;;;19.57;57.87
39449;BME280;25151;45.566;9.382;2024-02-23T07:37:43;97880.34;;;19.59;57.85
39449;BME280;25151;45.566;9.382;2024-02-23T07:40:10;97879.56;;;19.59;57.87
39449;BME280;25151;45.566;9.382;2024-02-23T07:42:36;97888.47;;;19.57;57.75
39449;BME280;25151;45.566;9.382;2024-02-23T07:45:03;97894.81;;;19.58;57.83
39449;BME280;25151;45.566;9.382;2024-02-23T07:47:30;97885.38;;;19.55;58.10
39449;BME280;25151;45.566;9.382;2024-02-23T07:49:57;97894.06;;;19.57;57.95
39449;BME280;25151;45.566;9.382;2024-02-23T07:52:23;97906.78;;;19.58;57.97
39449;BME280;25151;45.566;9.382;2024-02-23T07:54:51;97899.16;;;19.59;58.05
39449;BME280;25151;45.566;9.382;2024-02-23T07:57:18;97895.31;;;19.56;57.84
39449;BME280;25151;45.566;9.382;2024-02-23T07:59:45;97903.72;;;19.56;57.84
39449;BME280;25151;45.566;9.382;2024-02-23T08:02:11;97906.78;;;19.58;58.05
39449;BME280;25151;45.566;9.382;2024-02-23T08:04:38;97905.50;;;19.59;58.19
39449;BME280;25151;45.566;9.382;2024-02-23T08:07:04;97898.13;;;19.56;58.23
39449;BME280;25151;45.566;9.382;2024-02-23T08:09:30;97901.94;;;19.59;58.02
39449;BME280;25151;45.566;9.382;2024-02-23T08:11:56;97905.50;;;19.59;58.08
39449;BME280;25151;45.566;9.382;2024-02-23T08:14:22;97906.78;;;19.58;58.08
39449;BME280;25151;45.566;9.382;2024-02-23T08:16:48;97911.09;;;19.59;58.19
39449;BME280;25151;45.566;9.382;2024-02-23T08:19:15;97917.47;;;19.60;58.14
39449;BME280;25151;45.566;9.382;2024-02-23T08:21:41;97913.91;;;19.59;58.23
39449;BME280;25151;45.566;9.382;2024-02-23T08:24:09;97895.41;;;19.62;58.29
39449;BME280;25151;45.566;9.382;2024-02-23T08:26:35;97862.34;;;19.60;58.12
39449;BME280;25151;45.566;9.382;2024-02-23T08:29:03;97842.00;;;19.60;58.43
39449;BME280;25151;45.566;9.382;2024-02-23T08:31:30;97830.59;;;19.63;58.09
39449;BME280;25151;45.566;9.382;2024-02-23T08:33:56;97837.75;;;19.64;58.24
39449;BME280;25151;45.566;9.382;2024-02-23T08:36:22;97855.00;;;19.63;58.21
39449;BME280;25151;45.566;9.382;2024-02-23T08:38:49;97862.63;;;19.62;58.45
39449;BME280;25151;45.566;9.382;2024-02-23T08:41:15;97857.03;;;19.62;58.14
39449;BME280;25151;45.566;9.382;2024-02-23T08:43:41;97860.59;;;19.63;58.43
39449;BME280;25151;45.566;9.382;2024-02-23T08:46:07;97868.97;;;19.63;58.34
39449;BME280;25151;45.566;9.382;2024-02-23T08:48:41;97873.03;;;19.62;58.23
39449;BME280;25151;45.566;9.382;2024-02-23T08:51:07;97877.06;;;19.61;58.27
39449;BME280;25151;45.566;9.382;2024-02-23T08:53:33;97871.97;;;19.59;58.63
39449;BME280;25151;45.566;9.382;2024-02-23T08:56:00;97873.03;;;19.62;58.64
39449;BME280;25151;45.566;9.382;2024-02-23T08:58:26;97893.09;;;19.60;58.54
39449;BME280;25151;45.566;9.382;2024-02-23T09:00:52;97903.03;;;19.61;58.64
39449;BME280;25151;45.566;9.382;2024-02-23T09:03:18;97910.63;;;19.61;58.71
39449;BME280;25151;45.566;9.382;2024-02-23T09:05:45;97924.13;;;19.62;58.53
39449;BME280;25151;45.566;9.382;2024-02-23T09:08:12;97919.81;;;19.61;58.42
39449;BME280;25151;45.566;9.382;2024-02-23T09:10:38;97916.50;;;19.63;58.55
39449;BME280;25151;45.566;9.382;2024-02-23T09:13:05;97907.66;;;19.64;58.57
39449;BME280;25151;45.566;9.382;2024-02-23T09:15:31;97899.28;;;19.64;58.63
39449;BME280;25151;45.566;9.382;2024-02-23T09:17:57;97890.59;;;19.62;58.67
39449;BME280;25151;45.566;9.382;2024-02-23T09:20:23;97894.66;;;19.61;58.66
39449;BME280;25151;45.566;9.382;2024-02-23T09:22:49;97904.56;;;19.62;58.67
39449;BME280;25151;45.566;9.382;2024-02-23T09:25:16;97923.38;;;19.62;58.77
39449;BME280;25151;45.566;9.382;2024-02-23T09:27:42;97928.19;;;19.61;58.58
39449;BME280;25151;45.566;9.382;2024-02-23T09:30:12;97916.22;;;19.61;58.76
39449;BME280;25151;45.566;9.382;2024-02-23T09:32:38;97919.31;;;19.63;58.74
39449;BME280;25151;45.566;9.382;2024-02-23T09:35:05;97920.56;;;19.62;58.69
39449;BME280;25151;45.566;9.382;2024-02-23T09:37:32;97925.41;;;19.61;58.78
39449;BME280;25151;45.566;9.382;2024-02-23T09:39:58;97943.13;;;19.58;58.71
39449;BME280;25151;45.566;9.382;2024-02-23T09:42:24;97947.44;;;19.59;59.02
39449;BME280;25151;45.566;9.382;2024-02-23T09:44:57;97954.59;;;19.60;58.79
39449;BME280;25151;45.566;9.382;2024-02-23T09:47:30;97938.78;;;19.57;58.90
39449;BME280;25151;45.566;9.382;2024-02-23T09:49:56;97932.69;;;19.59;58.70
39449;BME280;25151;45.566;9.382;2024-02-23T09:52:26;97919.47;;;19.59;58.70
39449;BME280;25151;45.566;9.382;2024-02-23T09:54:54;97909.56;;;19.58;58.82
39449;BME280;25151;45.566;9.382;2024-02-23T09:57:21;97912.38;;;19.58;58.62
39449;BME280;25151;45.566;9.382;2024-02-23T09:59:48;97916.41;;;19.57;58.62
39449;BME280;25151;45.566;9.382;2024-02-23T10:02:15;97912.38;;;19.58;58.61
39449;BME280;25151;45.566;9.382;2024-02-23T10:04:43;97908.31;;;19.59;58.70
39449;BME280;25151;45.566;9.382;2024-02-23T10:07:10;97911.44;;;19.61;58.84
39449;BME280;25151;45.566;9.382;2024-02-23T10:09:36;97912.19;;;19.62;58.70
39449;BME280;25151;45.566;9.382;2024-02-23T10:12:03;97918.06;;;19.64;58.71
39449;BME280;25151;45.566;9.382;2024-02-23T10:14:28;97916.03;;;19.64;58.54
39449;BME280;25151;45.566;9.382;2024-02-23T10:16:54;97925.97;;;19.65;58.71
39449;BME280;25151;45.566;9.382;2024-02-23T10:19:21;97926.22;;;19.68;58.61
39449;BME280;25151;45.566;9.382;2024-02-23T10:21:47;97913.88;;;19.74;58.50
39449;BME280;25151;45.566;9.382;2024-02-23T10:24:17;97924.34;;;19.79;58.22
39449;BME280;25151;45.566;9.382;2024-02-23T10:26:43;97918.28;;;19.81;58.19
39449;BME280;25151;45.566;9.382;2024-02-23T10:29:10;97911.72;;;19.84;58.42
39449;BME280;25151;45.566;9.382;2024-02-23T10:31:36;97910.72;;;19.87;58.02
39449;BME280;25151;45.566;9.382;2024-02-23T10:34:10;97922.47;;;19.91;58.06
39449;BME280;25151;45.566;9.382;2024-02-23T10:36:41;97923.00;;;19.95;57.96
39449;BME280;25151;45.566;9.382;2024-02-23T10:39:08;97921.28;;;19.98;58.28
39449;BME280;25151;45.566;9.382;2024-02-23T10:41:39;97917.00;;;20.02;57.95
39449;BME280;25151;45.566;9.382;2024-02-23T10:44:11;97916.78;;;20.06;57.93
39449;BME280;25151;45.566;9.382;2024-02-23T10:46:37;97914.06;;;20.11;57.70
39449;BME280;25151;45.566;9.382;2024-02-23T10:49:06;97913.63;;;20.19;57.68
39449;BME280;25151;45.566;9.382;2024-02-23T10:51:33;97911.88;;;20.21;57.38
39449;BME280;25151;45.566;9.382;2024-02-23T10:54:01;97907.34;;;20.24;57.48
39449;BME280;25151;45.566;9.382;2024-02-23T10:56:28;97902.28;;;20.28;57.48
39449;BME280;25151;45.566;9.382;2024-02-23T10:58:54;97906.63;;;20.29;57.76
39449;BME280;25151;45.566;9.382;2024-02-23T11:01:21;97896.94;;;20.30;57.39
39449;BME280;25151;45.566;9.382;2024-02-23T11:03:49;97887.56;;;20.33;57.34
39449;BME280;25151;45.566;9.382;2024-02-23T11:06:16;97890.63;;;20.35;57.70
39449;BME280;25151;45.566;9.382;2024-02-23T11:08:47;97892.97;;;20.36;57.31
39449;BME280;25151;45.566;9.382;2024-02-23T11:11:17;97899.31;;;20.37;57.37
39449;BME280;25151;45.566;9.382;2024-02-23T11:13:44;97916.38;;;20.39;57.29
39449;BME280;25151;45.566;9.382;2024-02-23T11:16:22;97914.84;;;20.38;57.54
39449;BME280;25151;45.566;9.382;2024-02-23T11:18:49;97914.38;;;20.39;57.48
39449;BME280;25151;45.566;9.382;2024-02-23T11:21:15;97910.78;;;20.39;57.53
39449;BME280;25151;45.566;9.382;2024-02-23T11:23:48;97910.78;;;20.39;57.63
39449;BME280;25151;45.566;9.382;2024-02-23T11:26:15;97912.34;;;20.40;57.18
39449;BME280;25151;45.566;9.382;2024-02-23T11:28:48;97909.78;;;20.42;57.67
39449;BME280;25151;45.566;9.382;2024-02-23T11:31:18;97917.94;;;20.40;57.55
39449;BME280;25151;45.566;9.382;2024-02-23T11:34:08;97907.50;;;20.41;57.27
39449;BME280;25151;45.566;9.382;2024-02-23T11:36:35;97907.50;;;20.41;57.42
39449;BME280;25151;45.566;9.382;2024-02-23T11:39:04;97913.88;;;20.41;57.64
39449;BME280;25151;45.566;9.382;2024-02-23T11:41:31;97911.06;;;20.41;57.30
39449;BME280;25151;45.566;9.382;2024-02-23T11:43:57;97904.69;;;20.41;57.58
39449;BME280;25151;45.566;9.382;2024-02-23T11:46:24;97906.22;;;20.42;57.60
39449;BME280;25151;45.566;9.382;2024-02-23T11:48:50;97905.47;;;20.41;57.68
39449;BME280;25151;45.566;9.382;2024-02-23T11:51:20;97908.25;;;20.41;57.69
39449;BME280;25151;45.566;9.382;2024-02-23T11:53:47;97895.53;;;20.40;57.68
39449;BME280;25151;45.566;9.382;2024-02-23T11:56:14;97888.66;;;20.41;57.78
39449;BME280;25151;45.566;9.382;2024-02-23T11:58:41;97891.47;;;20.41;57.57
39449;BME280;25151;45.566;9.382;2024-02-23T12:01:07;97890.97;;;20.43;57.76
39449;BME280;25151;45.566;9.382;2024-02-23T12:03:33;97892.75;;;20.40;57.61
39449;BME280;25151;45.566;9.382;2024-02-23T12:06:03;97889.94;;;20.40;57.60
39449;BME280;25151;45.566;9.382;2024-02-23T12:08:31;97881.03;;;20.42;57.40
39449;BME280;25151;45.566;9.382;2024-02-23T12:11:04;97871.59;;;20.39;57.53
39449;BME280;25151;45.566;9.382;2024-02-23T12:13:31;97883.34;;;20.43;57.68
39449;BME280;25151;45.566;9.382;2024-02-23T12:15:57;97884.88;;;20.44;57.43
39449;BME280;25151;45.566;9.382;2024-02-23T12:18:23;97871.66;;;20.45;57.45
39449;BME280;25151;45.566;9.382;2024-02-23T12:20:53;97856.13;;;20.44;57.37
39449;BME280;25151;45.566;9.382;2024-02-23T12:23:19;97855.63;;;20.45;57.64
39449;BME280;25151;45.566;9.382;2024-02-23T12:25:56;97839.88;;;20.48;57.36
39449;BME280;25151;45.566;9.382;2024-02-23T12:28:22;97846.25;;;20.48;57.72
39449;BME280;25151;45.566;9.382;2024-02-23T12:31:01;97847.22;;;20.45;57.63
39449;BME280;25151;45.566;9.382;2024-02-23T12:33:28;97858.16;;;20.43;57.71
39449;BME280;25151;45.566;9.382;2024-02-23T12:35:58;97858.63;;;20.42;57.38
39449;BME280;25151;45.566;9.382;2024-02-23T12:38:24;97848.50;;;20.44;57.67
39449;BME280;25151;45.566;9.382;2024-02-23T12:40:51;97844.16;;;20.43;57.66
39449;BME280;25151;45.566;9.382;2024-02-23T12:43:17;97832.97;;;20.43;57.56
39449;BME280;25151;45.566;9.382;2024-02-23T12:45:44;97831.69;;;20.44;57.60
39449;BME280;25151;45.566;9.382;2024-02-23T12:48:11;97817.19;;;20.46;57.70
39449;BME280;25151;45.566;9.382;2024-02-23T12:50:37;97816.16;;;20.43;57.74
39449;BME280;25151;45.566;9.382;2024-02-23T12:55:59;97813.84;;;20.42;57.62
39449;BME280;25151;45.566;9.382;2024-02-23T12:58:26;97810.78;;;20.39;57.82
39449;BME280;25151;45.566;9.382;2024-02-23T13:00:51;97822.00;;;20.39;57.58
39449;BME280;25151;45.566;9.382;2024-02-23T13:03:18;97824.50;;;20.37;57.52